Time;durP1;ratioP1;P1;durP2;ratioP2;P2;SDS_P1;SDS_P2;PMS_P1;PMS_P2;Temp;Humidity;BMP_temperature;BMP_pressure;BME280_temperature;BME280_humidity;BME280_pressure;Samples;Min_cycle;Max_cycle;Signal;HPM_P1;HPM_P2
2023/07/28 00:01:25;;;;;;;4.82;2.65;;;;;;;;;;7393880;19;20006;-73
2023/07/28 00:03:50;;;;;;;6.05;2.70;;;;;;;;;;7371259;19;20500;-73
2023/07/28 00:06:16;;;;;;;4.32;2.45;;;;;;;;;;7371016;19;20016;-73
2023/07/28 00:08:41;;;;;;;5.18;2.85;;;;;;;;;;7370317;19;20003;-73
2023/07/28 00:11:12;;;;;;;4.88;2.40;;;;;;;;;;7371590;19;20058;-72
2023/07/28 00:13:38;;;;;;;5.03;2.75;;;;;;;;;;7393223;19;20003;-72
2023/07/28 00:16:03;;;;;;;9.65;2.63;;;;;;;;;;7371948;19;20016;-72
2023/07/28 00:18:29;;;;;;;6.03;3.25;;;;;;;;;;7371695;19;20010;-72
2023/07/28 00:20:54;;;;;;;6.35;3.50;;;;;;;;;;7371889;19;20480;-72
2023/07/28 00:23:19;;;;;;;7.90;2.97;;;;;;;;;;7372068;19;20018;-72
2023/07/28 00:25:45;;;;;;;5.93;2.92;;;;;;;;;;7393562;19;20054;-73
2023/07/28 00:28:10;;;;;;;5.47;3.28;;;;;;;;;;7368922;19;20077;-72
2023/07/28 00:30:35;;;;;;;6.00;3.15;;;;;;;;;;7370728;19;20007;-71
2023/07/28 00:33:01;;;;;;;7.40;3.03;;;;;;;;;;7370907;19;20581;-71
2023/07/28 00:35:26;;;;;;;6.50;3.10;;;;;;;;;;7369529;19;20011;-72
2023/07/28 00:37:51;;;;;;;4.88;3.03;;;;;;;;;;7391620;19;19998;-72
2023/07/28 00:40:17;;;;;;;5.95;3.03;;;;;;;;;;7370851;19;20003;-72
2023/07/28 00:42:42;;;;;;;7.88;2.95;;;;;;;;;;7370696;19;20369;-71
2023/07/28 00:45:08;;;;;;;6.00;3.35;;;;;;;;;;7371185;19;20002;-73
2023/07/28 00:47:34;;;;;;;5.85;3.28;;;;;;;;;;7370260;19;20010;-72
2023/07/28 00:49:59;;;;;;;8.80;3.25;;;;;;;;;;7370993;19;20021;-73
2023/07/28 00:52:24;;;;;;;7.13;3.10;;;;;;;;;;7392532;19;19998;-72
2023/07/28 00:54:50;;;;;;;5.35;3.00;;;;;;;;;;7368907;19;20010;-71
2023/07/28 00:57:16;;;;;;;5.30;3.03;;;;;;;;;;7370095;19;20560;-72
2023/07/28 00:59:41;;;;;;;6.53;3.25;;;;;;;;;;7370977;19;20035;-72
2023/07/28 01:02:07;;;;;;;5.80;3.20;;;;;;;;;;7369982;19;20375;-72
2023/07/28 01:04:32;;;;;;;9.32;3.15;;;;;;;;;;7392017;19;20002;-72
2023/07/28 01:07:09;;;;;;;5.88;3.00;;;;;;;;;;7369685;19;20078;-72
2023/07/28 01:09:43;;;;;;;5.05;2.83;;;;;;;;;;7371993;19;20106;-71
2023/07/28 01:12:09;;;;;;;7.03;3.20;;;;;;;;;;7373712;19;20035;-71
2023/07/28 01:14:34;;;;;;;6.93;3.53;;;;;;;;;;7372355;19;20426;-71
2023/07/28 01:17:00;;;;;;;5.32;3.10;;;;;;;;;;7370784;19;20014;-72
2023/07/28 01:19:25;;;;;;;5.75;3.17;;;;;;;;;;7392184;19;20011;-71
2023/07/28 01:22:08;;;;;;;6.88;3.25;;;;;;;;;;7369603;19;20484;-73
2023/07/28 01:24:49;;;;;;;6.10;3.13;;;;;;;;;;7369860;19;20014;-71
2023/07/28 01:27:17;;;;;;;8.55;2.75;;;;;;;;;;7368749;19;20480;-73
2023/07/28 01:29:44;;;;;;;5.22;2.92;;;;;;;;;;7370624;19;20631;-71
2023/07/28 01:32:11;;;;;;;6.60;2.85;;;;;;;;;;7368111;19;20011;-72
2023/07/28 01:34:36;;;;;;;6.28;3.00;;;;;;;;;;7389389;19;20021;-71
2023/07/28 01:37:02;;;;;;;4.72;2.58;;;;;;;;;;7368385;19;20684;-72
2023/07/28 01:39:27;;;;;;;5.55;2.78;;;;;;;;;;7369676;19;20616;-71
2023/07/28 01:41:52;;;;;;;9.25;2.63;;;;;;;;;;7368973;19;20010;-72
2023/07/28 01:44:18;;;;;;;5.28;3.20;;;;;;;;;;7368840;19;20091;-72
2023/07/28 01:46:43;;;;;;;5.75;3.10;;;;;;;;;;7390936;19;20010;-72
2023/07/28 01:49:08;;;;;;;8.30;3.03;;;;;;;;;;7368726;19;20458;-71
2023/07/28 01:54:09;;;;;;;6.07;3.22;;;;;;;;;;7286133;19;20039;-76
2023/07/28 01:56:34;;;;;;;5.53;2.60;;;;;;;;;;7365138;19;20018;-75
2023/07/28 01:58:59;;;;;;;5.53;2.88;;;;;;;;;;7371893;19;20083;-75
2023/07/28 02:01:25;;;;;;;6.10;3.38;;;;;;;;;;7399045;19;20038;-75
2023/07/28 02:03:50;;;;;;;5.80;3.22;;;;;;;;;;7376128;19;20006;-75
2023/07/28 02:06:15;;;;;;;5.47;3.03;;;;;;;;;;7375845;19;20717;-74
2023/07/28 02:08:41;;;;;;;6.45;2.78;;;;;;;;;;7375988;19;20460;-71
2023/07/28 02:11:06;;;;;;;5.53;2.70;;;;;;;;;;7383857;19;20034;-72
2023/07/28 02:13:31;;;;;;;5.45;2.70;;;;;;;;;;7401280;19;20087;-72
2023/07/28 02:15:57;;;;;;;4.95;2.65;;;;;;;;;;7380868;19;20010;-72
2023/07/28 02:18:22;;;;;;;6.93;2.72;;;;;;;;;;7379253;19;20006;-72
2023/07/28 02:20:49;;;;;;;5.18;2.78;;;;;;;;;;7379685;19;20006;-72
2023/07/28 02:23:14;;;;;;;5.35;3.08;;;;;;;;;;7379554;19;20066;-72
2023/07/28 02:25:39;;;;;;;5.60;2.95;;;;;;;;;;7403436;19;19999;-72
2023/07/28 02:28:05;;;;;;;6.07;3.20;;;;;;;;;;7381543;19;20479;-72
2023/07/28 02:30:30;;;;;;;5.28;2.72;;;;;;;;;;7380236;19;20027;-72
2023/07/28 02:32:55;;;;;;;6.30;3.00;;;;;;;;;;7379218;19;20067;-72
2023/07/28 02:35:20;;;;;;;5.55;3.08;;;;;;;;;;7377158;19;20014;-71
2023/07/28 02:37:46;;;;;;;6.47;3.20;;;;;;;;;;7400521;19;20015;-71
2023/07/28 02:40:12;;;;;;;5.03;2.88;;;;;;;;;;7377209;19;20049;-72
2023/07/28 02:42:38;;;;;;;4.80;2.90;;;;;;;;;;7376442;19;20043;-71
2023/07/28 02:45:03;;;;;;;6.30;2.83;;;;;;;;;;7373035;19;20101;-71
2023/07/28 02:47:29;;;;;;;5.70;3.17;;;;;;;;;;7374108;19;20684;-71
2023/07/28 02:49:54;;;;;;;5.20;3.05;;;;;;;;;;7393114;19;20003;-71
2023/07/28 02:52:19;;;;;;;5.30;3.10;;;;;;;;;;7367310;19;20002;-71
2023/07/28 02:54:45;;;;;;;5.25;2.95;;;;;;;;;;7364004;19;20006;-71
2023/07/28 02:57:10;;;;;;;5.25;2.97;;;;;;;;;;7370397;19;20010;-71
2023/07/28 02:59:35;;;;;;;5.20;3.20;;;;;;;;;;7375711;19;20029;-71
2023/07/28 03:02:00;;;;;;;7.40;3.45;;;;;;;;;;7374917;19;20002;-71
2023/07/28 03:04:26;;;;;;;5.70;3.58;;;;;;;;;;7394218;19;20070;-71
2023/07/28 03:06:51;;;;;;;5.30;2.80;;;;;;;;;;7375578;19;20364;-70
2023/07/28 03:09:16;;;;;;;5.80;3.03;;;;;;;;;;7374879;19;20019;-70
2023/07/28 03:11:43;;;;;;;5.35;3.33;;;;;;;;;;7374468;19;20094;-70
2023/07/28 03:14:08;;;;;;;7.07;3.40;;;;;;;;;;7372217;19;20006;-71
2023/07/28 03:16:33;;;;;;;5.13;3.15;;;;;;;;;;7395893;19;20058;-71
2023/07/28 03:18:59;;;;;;;7.28;3.58;;;;;;;;;;7373629;19;20507;-70
2023/07/28 03:21:24;;;;;;;5.93;3.60;;;;;;;;;;7373918;19;20027;-70
2023/07/28 03:23:49;;;;;;;5.88;3.30;;;;;;;;;;7372937;19;20010;-70
2023/07/28 03:26:15;;;;;;;6.22;2.90;;;;;;;;;;7373994;19;20548;-72
2023/07/28 03:28:40;;;;;;;6.55;3.22;;;;;;;;;;7395873;19;20031;-70
2023/07/28 03:31:05;;;;;;;7.00;3.50;;;;;;;;;;7372965;19;20010;-71
2023/07/28 03:33:30;;;;;;;5.55;3.30;;;;;;;;;;7373635;19;20079;-70
2023/07/28 03:35:56;;;;;;;8.23;3.60;;;;;;;;;;7372414;19;20073;-70
2023/07/28 03:38:21;;;;;;;6.07;3.35;;;;;;;;;;7374946;19;20010;-71
2023/07/28 03:40:47;;;;;;;4.82;3.05;;;;;;;;;;7395351;19;20023;-70
2023/07/28 03:43:12;;;;;;;5.45;3.30;;;;;;;;;;7371857;19;20002;-70
2023/07/28 03:45:38;;;;;;;5.00;3.30;;;;;;;;;;7373781;19;20011;-70
2023/07/28 03:48:03;;;;;;;5.97;2.97;;;;;;;;;;7375460;19;20010;-71
2023/07/28 03:50:28;;;;;;;5.55;3.22;;;;;;;;;;7373880;19;20006;-71
2023/07/28 03:52:53;;;;;;;5.55;3.20;;;;;;;;;;7395891;19;20032;-71
2023/07/28 03:55:19;;;;;;;6.40;3.20;;;;;;;;;;7370174;19;20491;-71
2023/07/28 03:57:44;;;;;;;5.85;3.60;;;;;;;;;;7372168;19;20089;-71
2023/07/28 04:00:10;;;;;;;5.47;3.17;;;;;;;;;;7371489;19;20031;-70
2023/07/28 04:02:35;;;;;;;5.55;3.17;;;;;;;;;;7368459;19;20037;-71
2023/07/28 04:05:01;;;;;;;5.70;3.17;;;;;;;;;;7369192;19;20849;-71
2023/07/28 04:07:26;;;;;;;4.68;2.65;;;;;;;;;;7392076;19;19998;-70
2023/07/28 04:09:53;;;;;;;5.10;2.70;;;;;;;;;;7372493;19;20011;-71
2023/07/28 04:12:18;;;;;;;5.90;3.00;;;;;;;;;;7371259;19;20464;-72
2023/07/28 04:14:43;;;;;;;4.65;2.55;;;;;;;;;;7372973;19;20014;-71
2023/07/28 04:17:09;;;;;;;5.45;2.40;;;;;;;;;;7373265;19;20014;-71
2023/07/28 04:19:34;;;;;;;7.07;2.70;;;;;;;;;;7396547;19;20031;-72
2023/07/28 04:22:01;;;;;;;4.18;2.53;;;;;;;;;;7374650;19;20487;-72
2023/07/28 04:24:26;;;;;;;4.03;2.30;;;;;;;;;;7370263;19;20018;-72
2023/07/28 04:26:52;;;;;;;4.00;2.28;;;;;;;;;;7372194;19;20014;-72
2023/07/28 04:29:18;;;;;;;3.85;2.30;;;;;;;;;;7373373;19;20018;-72
2023/07/28 04:31:43;;;;;;;3.53;2.17;;;;;;;;;;7394043;19;20010;-72
2023/07/28 04:34:09;;;;;;;3.83;2.20;;;;;;;;;;7366450;19;20010;-72
2023/07/28 04:36:34;;;;;;;4.40;2.55;;;;;;;;;;7367896;19;20007;-70
2023/07/28 04:38:59;;;;;;;4.78;2.10;;;;;;;;;;7368220;19;20010;-71
2023/07/28 04:41:25;;;;;;;5.35;2.30;;;;;;;;;;7368898;19;20014;-71
2023/07/28 04:43:50;;;;;;;4.53;2.40;;;;;;;;;;7389118;19;20018;-71
2023/07/28 04:46:15;;;;;;;3.90;1.95;;;;;;;;;;7367028;19;20476;-73
2023/07/28 04:48:41;;;;;;;3.17;1.88;;;;;;;;;;7369741;19;20528;-71
2023/07/28 04:51:06;;;;;;;4.13;2.08;;;;;;;;;;7370725;19;20010;-71
2023/07/28 04:53:31;;;;;;;5.43;2.25;;;;;;;;;;7369446;19;20468;-72
2023/07/28 04:55:57;;;;;;;4.68;1.92;;;;;;;;;;7391636;19;20006;-77
2023/07/28 04:58:22;;;;;;;4.25;2.15;;;;;;;;;;7375319;19;20014;-71
2023/07/28 05:00:47;;;;;;;4.13;2.08;;;;;;;;;;7370867;19;20007;-71
2023/07/28 05:03:13;;;;;;;4.82;1.83;;;;;;;;;;7369373;19;20070;-72
2023/07/28 05:05:38;;;;;;;5.13;2.10;;;;;;;;;;7370814;19;20102;-72
2023/07/28 05:08:03;;;;;;;3.60;2.30;;;;;;;;;;7370455;19;20006;-72
2023/07/28 05:10:29;;;;;;;4.07;2.10;;;;;;;;;;7392792;19;20022;-72
2023/07/28 05:12:54;;;;;;;3.33;1.98;;;;;;;;;;7368590;19;20034;-72
2023/07/28 05:15:19;;;;;;;5.90;2.10;;;;;;;;;;7369122;19;20042;-72
2023/07/28 05:17:45;;;;;;;7.97;1.98;;;;;;;;;;7370484;19;20011;-72
2023/07/28 05:20:11;;;;;;;3.78;1.98;;;;;;;;;;7369855;19;20069;-72
2023/07/28 05:22:36;;;;;;;3.47;1.85;;;;;;;;;;7393170;19;19998;-72
2023/07/28 05:25:01;;;;;;;5.25;2.05;;;;;;;;;;7368330;19;20413;-72
2023/07/28 05:27:27;;;;;;;2.95;1.98;;;;;;;;;;7370237;19;20086;-72
2023/07/28 05:29:52;;;;;;;3.80;1.98;;;;;;;;;;7370335;19;20118;-72
2023/07/28 05:32:17;;;;;;;2.20;1.58;;;;;;;;;;7370752;19;20003;-72
2023/07/28 05:34:43;;;;;;;2.78;1.70;;;;;;;;;;7389707;19;20013;-72
2023/07/28 05:37:09;;;;;;;1.90;1.58;;;;;;;;;;7369050;19;20518;-73
2023/07/28 05:39:34;;;;;;;4.28;1.65;;;;;;;;;;7369860;19;20010;-72
2023/07/28 05:41:59;;;;;;;4.30;1.67;;;;;;;;;;7369833;19;20738;-72
2023/07/28 05:44:25;;;;;;;3.33;1.77;;;;;;;;;;7367825;19;20014;-72
2023/07/28 05:46:50;;;;;;;2.85;1.85;;;;;;;;;;7391184;19;20031;-72
2023/07/28 05:49:15;;;;;;;4.97;1.88;;;;;;;;;;7369520;19;20010;-71
2023/07/28 05:51:41;;;;;;;1.85;1.60;;;;;;;;;;7369310;19;20014;-73
2023/07/28 05:54:07;;;;;;;2.63;1.60;;;;;;;;;;7367046;19;20104;-72
2023/07/28 05:56:32;;;;;;;3.22;1.60;;;;;;;;;;7371982;19;20042;-72
2023/07/28 05:58:57;;;;;;;5.40;1.75;;;;;;;;;;7385798;19;19994;-73
2023/07/28 06:01:25;;;;;;;2.60;1.70;;;;;;;;;;7382207;19;20025;-72
2023/07/28 06:03:51;;;;;;;2.40;1.52;;;;;;;;;;7368366;19;20347;-73
2023/07/28 06:06:17;;;;;;;3.70;1.80;;;;;;;;;;7369091;19;20532;-73
2023/07/28 06:08:42;;;;;;;5.80;1.65;;;;;;;;;;7366871;19;20023;-73
2023/07/28 06:11:07;;;;;;;5.07;1.98;;;;;;;;;;7368875;19;20002;-73
2023/07/28 06:13:33;;;;;;;2.40;1.65;;;;;;;;;;7387084;19;20010;-72
2023/07/28 06:15:58;;;;;;;3.47;1.90;;;;;;;;;;7368636;19;20003;-72
2023/07/28 06:18:24;;;;;;;3.58;1.70;;;;;;;;;;7369002;19;20085;-73
2023/07/28 06:20:50;;;;;;;2.85;1.58;;;;;;;;;;7370100;19;20124;-74
2023/07/28 06:23:15;;;;;;;2.92;1.60;;;;;;;;;;7368052;19;20529;-74
2023/07/28 06:25:43;;;;;;;7.00;1.80;;;;;;;;;;7391662;19;20337;-73
2023/07/28 06:28:10;;;;;;;3.83;1.90;;;;;;;;;;7370249;19;20011;-73
2023/07/28 06:30:36;;;;;;;2.08;1.55;;;;;;;;;;7372347;19;20002;-73
2023/07/28 06:33:03;;;;;;;1.23;1.13;;;;;;;;;;7377499;19;20010;-74
2023/07/28 06:35:28;;;;;;;1.30;1.20;;;;;;;;;;7376141;19;19998;-74
2023/07/28 06:37:53;;;;;;;1.77;1.30;;;;;;;;;;7399767;19;20062;-74
2023/07/28 06:40:19;;;;;;;1.20;1.10;;;;;;;;;;7377208;19;21430;-74
2023/07/28 06:42:44;;;;;;;1.60;1.20;;;;;;;;;;7377768;19;20504;-74
2023/07/28 06:45:10;;;;;;;2.53;1.25;;;;;;;;;;7374017;19;20006;-73
2023/07/28 06:47:35;;;;;;;1.17;1.10;;;;;;;;;;7374403;19;20009;-73
2023/07/28 06:50:00;;;;;;;1.30;1.20;;;;;;;;;;7375641;19;19994;-73
2023/07/28 06:52:26;;;;;;;1.65;1.13;;;;;;;;;;7395907;19;20489;-73
2023/07/28 06:54:52;;;;;;;0.90;0.90;;;;;;;;;;7372505;19;20006;-73
2023/07/28 06:57:17;;;;;;;1.50;1.13;;;;;;;;;;7375977;19;19998;-72
2023/07/28 06:59:43;;;;;;;1.42;0.93;;;;;;;;;;7375036;19;20039;-73
2023/07/28 07:02:09;;;;;;;5.03;1.10;;;;;;;;;;7377631;19;20010;-73
2023/07/28 07:04:34;;;;;;;1.20;1.02;;;;;;;;;;7396257;19;20006;-72
2023/07/28 07:07:00;;;;;;;1.00;0.90;;;;;;;;;;7379500;19;20014;-72
2023/07/28 07:09:25;;;;;;;0.70;0.70;;;;;;;;;;7378553;19;20010;-74
2023/07/28 07:11:50;;;;;;;0.95;0.90;;;;;;;;;;7378303;19;19998;-75
2023/07/28 07:14:16;;;;;;;1.08;1.00;;;;;;;;;;7376220;19;20159;-73
2023/07/28 07:16:42;;;;;;;2.20;1.15;;;;;;;;;;7403164;19;20026;-73
2023/07/28 07:19:08;;;;;;;0.85;0.85;;;;;;;;;;7383444;19;20483;-74
2023/07/28 07:21:33;;;;;;;0.80;0.80;;;;;;;;;;7375065;19;20014;-72
2023/07/28 07:23:59;;;;;;;2.30;1.13;;;;;;;;;;7373138;19;20007;-74
2023/07/28 07:26:24;;;;;;;1.15;1.05;;;;;;;;;;7375936;19;20002;-73
2023/07/28 07:28:49;;;;;;;1.92;1.20;;;;;;;;;;7395774;19;20019;-73
2023/07/28 07:31:15;;;;;;;2.17;1.20;;;;;;;;;;7374551;19;20005;-72
2023/07/28 07:33:42;;;;;;;1.13;0.90;;;;;;;;;;7371598;19;20671;-72
2023/07/28 07:36:18;;;;;;;1.00;1.00;;;;;;;;;;7372087;19;20066;-73
2023/07/28 07:38:47;;;;;;;2.80;1.10;;;;;;;;;;7374208;19;20006;-72
2023/07/28 07:41:19;;;;;;;1.10;1.00;;;;;;;;;;7374341;19;20010;-73
2023/07/28 07:43:44;;;;;;;1.88;1.05;;;;;;;;;;7393665;19;20002;-73
2023/07/28 07:46:09;;;;;;;2.08;0.90;;;;;;;;;;7374620;19;20478;-72
2023/07/28 07:48:35;;;;;;;3.75;1.10;;;;;;;;;;7373485;19;20090;-72
2023/07/28 07:51:00;;;;;;;3.08;1.20;;;;;;;;;;7373545;19;20006;-73
2023/07/28 07:53:25;;;;;;;1.00;0.93;;;;;;;;;;7371455;19;20006;-72
2023/07/28 07:55:51;;;;;;;0.70;0.70;;;;;;;;;;7392613;19;20716;-72
2023/07/28 07:58:16;;;;;;;0.85;0.82;;;;;;;;;;7372533;19;20018;-72
2023/07/28 08:00:43;;;;;;;1.60;0.90;;;;;;;;;;7372536;19;20007;-72
2023/07/28 08:03:10;;;;;;;0.85;0.73;;;;;;;;;;7372917;19;20006;-72
2023/07/28 08:05:35;;;;;;;1.58;0.82;;;;;;;;;;7376210;19;20007;-72
2023/07/28 08:08:01;;;;;;;2.25;1.00;;;;;;;;;;7379316;19;20022;-72
2023/07/28 08:10:26;;;;;;;1.17;0.98;;;;;;;;;;7398998;19;20007;-72
2023/07/28 08:12:52;;;;;;;0.80;0.80;;;;;;;;;;7373070;19;20031;-73
2023/07/28 08:15:17;;;;;;;2.42;0.98;;;;;;;;;;7371244;19;20067;-71
2023/07/28 08:17:42;;;;;;;1.23;1.02;;;;;;;;;;7372908;19;20010;-72
2023/07/28 08:20:08;;;;;;;1.48;0.90;;;;;;;;;;7371572;19;20031;-73
2023/07/28 08:22:33;;;;;;;2.05;1.15;;;;;;;;;;7394003;19;20495;-72
2023/07/28 08:24:59;;;;;;;0.80;0.80;;;;;;;;;;7368475;19;20007;-73
2023/07/28 08:27:25;;;;;;;2.78;1.10;;;;;;;;;;7371914;19;20432;-73
2023/07/28 08:29:50;;;;;;;3.22;0.98;;;;;;;;;;7372172;19;20018;-73
2023/07/28 08:32:15;;;;;;;1.63;0.90;;;;;;;;;;7372357;19;20103;-73
2023/07/28 08:34:41;;;;;;;0.95;0.95;;;;;;;;;;7391291;19;20065;-72
2023/07/28 08:37:06;;;;;;;2.13;1.02;;;;;;;;;;7371659;19;20006;-72
2023/07/28 08:39:32;;;;;;;2.15;1.00;;;;;;;;;;7371571;19;20006;-72
2023/07/28 08:42:00;;;;;;;3.83;1.00;;;;;;;;;;7371604;19;20002;-73
2023/07/28 08:44:26;;;;;;;1.83;1.10;;;;;;;;;;7370218;19;20468;-73
2023/07/28 08:46:52;;;;;;;1.02;0.95;;;;;;;;;;7392885;19;20541;-72
2023/07/28 08:49:17;;;;;;;1.08;0.85;;;;;;;;;;7370392;19;20009;-72
2023/07/28 08:51:42;;;;;;;4.78;1.00;;;;;;;;;;7370738;19;20472;-72
2023/07/28 08:54:08;;;;;;;1.15;1.05;;;;;;;;;;7366524;19;20006;-72
2023/07/28 08:56:33;;;;;;;2.05;1.00;;;;;;;;;;7372091;19;20464;-72
2023/07/28 08:58:59;;;;;;;3.25;1.20;;;;;;;;;;7375161;19;20059;-73
2023/07/28 09:01:25;;;;;;;2.90;1.00;;;;;;;;;;7392992;19;20098;-72
2023/07/28 09:03:50;;;;;;;1.25;0.90;;;;;;;;;;7369679;19;20002;-72
2023/07/28 09:06:15;;;;;;;1.55;1.10;;;;;;;;;;7370921;19;20027;-72
2023/07/28 09:08:43;;;;;;;1.20;1.10;;;;;;;;;;7370744;19;20018;-72
2023/07/28 09:11:08;;;;;;;2.80;1.08;;;;;;;;;;7370592;19;20014;-72
2023/07/28 09:13:41;;;;;;;2.40;1.40;;;;;;;;;;7391323;19;20003;-72
2023/07/28 09:16:17;;;;;;;1.10;1.00;;;;;;;;;;7369841;19;19998;-72
2023/07/28 09:18:43;;;;;;;1.83;1.30;;;;;;;;;;7369865;19;20007;-72
2023/07/28 09:21:20;;;;;;;0.80;0.80;;;;;;;;;;7369126;19;20007;-72
2023/07/28 09:23:47;;;;;;;2.00;1.20;;;;;;;;;;7369571;19;20002;-73
2023/07/28 09:26:12;;;;;;;1.35;0.90;;;;;;;;;;7370100;19;20007;-73
2023/07/28 09:28:41;;;;;;;2.95;1.00;;;;;;;;;;7391789;19;20023;-73
2023/07/28 09:31:07;;;;;;;1.80;1.08;;;;;;;;;;7368988;19;20006;-73
2023/07/28 09:33:35;;;;;;;1.08;0.93;;;;;;;;;;7368890;19;20026;-73
2023/07/28 09:36:11;;;;;;;2.58;1.10;;;;;;;;;;7367785;19;20029;-73
2023/07/28 09:38:40;;;;;;;1.83;1.30;;;;;;;;;;7370612;19;20036;-73
2023/07/28 09:41:09;;;;;;;1.50;1.00;;;;;;;;;;7369752;19;20081;-72
2023/07/28 09:43:35;;;;;;;1.67;1.20;;;;;;;;;;7391099;19;19995;-72
2023/07/28 09:46:03;;;;;;;1.30;1.20;;;;;;;;;;7369471;19;20010;-73
2023/07/28 09:48:32;;;;;;;0.90;0.90;;;;;;;;;;7370121;19;20002;-73
2023/07/28 09:50:59;;;;;;;1.40;1.00;;;;;;;;;;7372482;19;20017;-72
2023/07/28 09:53:27;;;;;;;1.75;1.20;;;;;;;;;;7373412;19;20113;-73
2023/07/28 09:55:52;;;;;;;1.55;1.10;;;;;;;;;;7393385;19;20005;-73
2023/07/28 09:58:20;;;;;;;5.22;1.30;;;;;;;;;;7368832;19;19998;-73
2023/07/28 10:00:47;;;;;;;2.78;1.20;;;;;;;;;;7369959;19;20006;-73
2023/07/28 10:03:13;;;;;;;1.30;1.20;;;;;;;;;;7369069;19;20019;-73
2023/07/28 10:05:38;;;;;;;1.42;1.00;;;;;;;;;;7370469;19;20010;-73
2023/07/28 10:08:04;;;;;;;1.33;1.08;;;;;;;;;;7371370;19;20006;-73
2023/07/28 10:10:30;;;;;;;2.35;1.20;;;;;;;;;;7391944;19;20042;-73
2023/07/28 10:12:58;;;;;;;1.67;1.17;;;;;;;;;;7369847;19;20006;-73
2023/07/28 10:15:31;;;;;;;0.95;0.95;;;;;;;;;;7368160;19;20051;-73
2023/07/28 10:17:59;;;;;;;1.27;1.10;;;;;;;;;;7370368;19;20018;-73
2023/07/28 10:20:27;;;;;;;1.70;1.08;;;;;;;;;;7370087;19;20077;-73
2023/07/28 10:22:53;;;;;;;1.60;1.00;;;;;;;;;;7391661;19;20052;-73
2023/07/28 10:25:23;;;;;;;1.42;1.25;;;;;;;;;;7365698;19;20457;-73
2023/07/28 10:27:50;;;;;;;4.50;1.40;;;;;;;;;;7369129;19;20065;-72
2023/07/28 10:30:16;;;;;;;1.20;1.08;;;;;;;;;;7368634;19;20356;-72
2023/07/28 10:32:43;;;;;;;1.30;1.20;;;;;;;;;;7369076;19;20058;-72
2023/07/28 10:35:11;;;;;;;3.05;1.40;;;;;;;;;;7365875;19;20011;-72
2023/07/28 10:37:36;;;;;;;1.20;1.10;;;;;;;;;;7390228;19;20484;-72
2023/07/28 10:40:28;;;;;;;1.40;1.25;;;;;;;;;;7368297;19;20042;-73
2023/07/28 10:42:54;;;;;;;1.45;1.15;;;;;;;;;;7368780;19;20086;-72
2023/07/28 10:45:22;;;;;;;1.17;1.08;;;;;;;;;;7367692;19;19998;-72
2023/07/28 10:47:48;;;;;;;1.67;1.10;;;;;;;;;;7369340;19;20007;-72
2023/07/28 10:50:14;;;;;;;1.20;1.10;;;;;;;;;;7367907;19;19999;-73
2023/07/28 10:52:43;;;;;;;1.75;1.35;;;;;;;;;;7389548;19;20010;-72
2023/07/28 10:55:15;;;;;;;1.52;1.17;;;;;;;;;;7364482;19;20018;-73
2023/07/28 10:57:43;;;;;;;1.20;1.10;;;;;;;;;;7366669;19;20107;-72
2023/07/28 11:00:09;;;;;;;3.08;1.50;;;;;;;;;;7367748;19;20372;-73
2023/07/28 11:02:48;;;;;;;2.03;1.52;;;;;;;;;;7367471;19;20010;-73
2023/07/28 11:05:22;;;;;;;2.38;1.55;;;;;;;;;;7364908;19;20086;-73
2023/07/28 11:07:48;;;;;;;2.20;1.33;;;;;;;;;;7389756;19;20467;-72
2023/07/28 11:10:14;;;;;;;1.40;1.30;;;;;;;;;;7367732;19;20067;-73
2023/07/28 11:12:42;;;;;;;3.13;1.58;;;;;;;;;;7367279;19;20010;-72
2023/07/28 11:15:10;;;;;;;4.82;1.33;;;;;;;;;;7364537;19;20478;-72
2023/07/28 11:17:38;;;;;;;4.63;1.50;;;;;;;;;;7369336;19;20543;-72
2023/07/28 11:20:03;;;;;;;2.10;1.55;;;;;;;;;;7374080;19;20070;-73
2023/07/28 11:22:29;;;;;;;2.25;1.65;;;;;;;;;;7396883;19;20007;-73
2023/07/28 11:24:54;;;;;;;3.40;1.60;;;;;;;;;;7371838;19;20006;-72
2023/07/28 11:27:19;;;;;;;4.03;1.75;;;;;;;;;;7374402;19;20031;-72
2023/07/28 11:29:46;;;;;;;3.20;1.90;;;;;;;;;;7376456;19;20007;-71
2023/07/28 11:32:15;;;;;;;3.65;1.90;;;;;;;;;;7376786;19;20006;-72
2023/07/28 11:34:43;;;;;;;3.28;2.00;;;;;;;;;;7396124;19;20018;-72
2023/07/28 11:37:09;;;;;;;3.35;2.03;;;;;;;;;;7375456;19;20017;-72
2023/07/28 11:39:35;;;;;;;3.13;1.80;;;;;;;;;;7374264;19;20003;-72
2023/07/28 11:42:01;;;;;;;4.07;2.00;;;;;;;;;;7373674;19;20475;-72
2023/07/28 11:44:26;;;;;;;2.83;2.00;;;;;;;;;;7372657;19;20007;-72
2023/07/28 11:46:55;;;;;;;5.55;2.00;;;;;;;;;;7395291;19;20686;-72
2023/07/28 11:49:23;;;;;;;6.60;1.80;;;;;;;;;;7373626;19;20011;-71
2023/07/28 11:51:58;;;;;;;3.03;2.03;;;;;;;;;;7372446;19;20006;-72
2023/07/28 11:54:25;;;;;;;4.38;2.22;;;;;;;;;;7371768;19;20050;-71
2023/07/28 11:56:55;;;;;;;7.38;2.65;;;;;;;;;;7374738;19;20046;-72
2023/07/28 11:59:21;;;;;;;4.50;2.70;;;;;;;;;;7378180;19;20073;-73
2023/07/28 12:01:54;;;;;;;4.35;2.50;;;;;;;;;;7396242;19;20015;-73
2023/07/28 12:04:30;;;;;;;5.85;2.80;;;;;;;;;;7374067;19;20010;-73
2023/07/28 12:07:11;;;;;;;5.30;2.83;;;;;;;;;;7375210;19;19998;-73
2023/07/28 12:09:46;;;;;;;5.45;3.00;;;;;;;;;;7376060;19;20024;-73
2023/07/28 12:12:21;;;;;;;4.38;2.97;;;;;;;;;;7375326;19;20010;-74
2023/07/28 12:14:47;;;;;;;5.32;3.30;;;;;;;;;;7374099;19;20111;-74
2023/07/28 12:17:17;;;;;;;6.10;3.00;;;;;;;;;;7376060;19;20002;-74
2023/07/28 12:19:57;;;;;;;4.53;2.90;;;;;;;;;;7400718;19;20003;-73
2023/07/28 12:22:22;;;;;;;4.38;2.85;;;;;;;;;;7382299;19;20003;-74
2023/07/28 12:24:48;;;;;;;4.35;2.70;;;;;;;;;;7378945;19;20025;-73
2023/07/28 12:27:13;;;;;;;3.95;2.30;;;;;;;;;;7379538;19;20044;-73
2023/07/28 12:29:39;;;;;;;3.58;2.13;;;;;;;;;;7372952;19;20028;-72
2023/07/28 12:32:05;;;;;;;3.13;2.20;;;;;;;;;;7373321;19;20024;-72
2023/07/28 12:34:30;;;;;;;2.88;2.10;;;;;;;;;;7392594;19;20024;-73
2023/07/28 12:36:56;;;;;;;3.55;2.20;;;;;;;;;;7372951;19;20454;-72
2023/07/28 12:39:21;;;;;;;2.63;1.83;;;;;;;;;;7374165;19;20086;-72
2023/07/28 12:41:46;;;;;;;2.60;1.80;;;;;;;;;;7373203;19;20055;-72
2023/07/28 12:44:12;;;;;;;2.90;2.00;;;;;;;;;;7373096;19;20035;-73
2023/07/28 12:46:37;;;;;;;4.28;1.95;;;;;;;;;;7396501;19;20074;-72
2023/07/28 12:49:04;;;;;;;3.53;1.80;;;;;;;;;;7373366;19;20085;-73
2023/07/28 12:51:30;;;;;;;3.53;1.77;;;;;;;;;;7373912;19;20051;-73
2023/07/28 12:53:55;;;;;;;2.15;1.52;;;;;;;;;;7376660;19;20074;-73
2023/07/28 12:56:21;;;;;;;2.08;1.52;;;;;;;;;;7373895;19;20501;-71
2023/07/28 12:58:46;;;;;;;2.10;1.70;;;;;;;;;;7394080;19;20350;-71
2023/07/28 13:01:11;;;;;;;2.35;1.70;;;;;;;;;;7372126;19;20599;-71
2023/07/28 13:03:38;;;;;;;2.50;1.83;;;;;;;;;;7372368;19;20042;-72
2023/07/28 13:06:04;;;;;;;2.33;1.58;;;;;;;;;;7371535;19;20010;-72
2023/07/28 13:08:29;;;;;;;1.80;1.50;;;;;;;;;;7371027;19;20103;-72
2023/07/28 13:10:54;;;;;;;1.60;1.50;;;;;;;;;;7392705;19;20086;-72
2023/07/28 13:13:20;;;;;;;2.53;1.48;;;;;;;;;;7369554;19;20509;-73
2023/07/28 13:15:45;;;;;;;2.70;1.65;;;;;;;;;;7365048;19;20396;-73
2023/07/28 13:18:11;;;;;;;2.92;1.70;;;;;;;;;;7370248;19;20013;-74
2023/07/28 13:20:36;;;;;;;4.70;1.50;;;;;;;;;;7367760;19;20626;-73
2023/07/28 13:23:02;;;;;;;1.42;1.33;;;;;;;;;;7368472;19;20003;-73
2023/07/28 13:25:27;;;;;;;1.50;1.27;;;;;;;;;;7391786;19;19995;-72
2023/07/28 13:27:52;;;;;;;2.30;1.50;;;;;;;;;;7366574;19;20722;-72
2023/07/28 13:30:18;;;;;;;3.22;1.60;;;;;;;;;;7369319;19;20006;-72
2023/07/28 13:32:43;;;;;;;1.88;1.40;;;;;;;;;;7369335;19;20094;-72
2023/07/28 13:35:08;;;;;;;4.45;1.52;;;;;;;;;;7367193;19;19995;-72
2023/07/28 13:37:34;;;;;;;1.85;1.50;;;;;;;;;;7390521;19;20032;-71
2023/07/28 13:39:59;;;;;;;2.20;1.60;;;;;;;;;;7367600;19;20079;-72
2023/07/28 13:42:25;;;;;;;2.63;1.52;;;;;;;;;;7369359;19;20011;-72
2023/07/28 13:44:50;;;;;;;4.28;1.70;;;;;;;;;;7368014;19;20011;-72
2023/07/28 13:47:15;;;;;;;3.33;1.70;;;;;;;;;;7367729;19;20037;-73
2023/07/28 13:49:41;;;;;;;2.78;1.73;;;;;;;;;;7390201;19;20005;-73
2023/07/28 13:52:06;;;;;;;2.70;1.85;;;;;;;;;;7368293;19;20119;-72
2023/07/28 13:54:32;;;;;;;1.85;1.55;;;;;;;;;;7367409;19;20002;-71
2023/07/28 13:56:57;;;;;;;2.88;1.70;;;;;;;;;;7369535;19;20010;-71
2023/07/28 13:59:22;;;;;;;2.72;1.80;;;;;;;;;;7368069;19;20078;-72
2023/07/28 14:01:48;;;;;;;4.38;1.77;;;;;;;;;;7391521;19;20003;-73
2023/07/28 14:04:14;;;;;;;3.20;1.80;;;;;;;;;;7367226;19;20031;-72
2023/07/28 14:06:39;;;;;;;4.07;1.90;;;;;;;;;;7368588;19;20014;-72
2023/07/28 14:09:05;;;;;;;2.50;1.80;;;;;;;;;;7370042;19;20002;-71
2023/07/28 14:11:31;;;;;;;2.47;1.60;;;;;;;;;;7375864;19;20349;-73
2023/07/28 14:13:56;;;;;;;2.40;1.75;;;;;;;;;;7389038;19;19998;-73
2023/07/28 14:16:21;;;;;;;2.70;1.77;;;;;;;;;;7367607;19;20033;-72
2023/07/28 14:18:48;;;;;;;2.70;1.60;;;;;;;;;;7367592;19;20003;-73
2023/07/28 14:21:13;;;;;;;3.70;1.77;;;;;;;;;;7367641;19;20010;-72
2023/07/28 14:23:39;;;;;;;2.45;1.75;;;;;;;;;;7367194;19;20010;-72
2023/07/28 14:26:04;;;;;;;1.95;1.55;;;;;;;;;;7368217;19;19998;-72
2023/07/28 14:28:29;;;;;;;2.17;1.65;;;;;;;;;;7388710;19;20001;-72
2023/07/28 14:30:55;;;;;;;6.30;2.03;;;;;;;;;;7366248;19;20003;-71
2023/07/28 14:33:20;;;;;;;2.85;1.80;;;;;;;;;;7364966;19;19999;-72
2023/07/28 14:35:48;;;;;;;3.65;1.65;;;;;;;;;;7363457;19;20011;-73
2023/07/28 14:38:13;;;;;;;2.35;1.75;;;;;;;;;;7365506;19;20013;-72
2023/07/28 14:40:39;;;;;;;3.13;2.08;;;;;;;;;;7387499;19;20003;-72